Time;durP1;ratioP1;P1;durP2;ratioP2;P2;SDS_P1;SDS_P2;PMS_P1;PMS_P2;Temp;Humidity;BMP_temperature;BMP_pressure;BME280_temperature;BME280_humidity;BME280_pressure;Samples;Min_cycle;Max_cycle;Signal;HPM_P1;HPM_P2
2023/08/17 00:01:16;;;;;;;6.97;2.33;;;;;;;21.42;95.19;101862.63;5252098;28;20545;-69
2023/08/17 00:03:47;;;;;;;3.57;1.77;;;;;;;21.43;94.79;101858.97;5257663;28;20025;-69
2023/08/17 00:06:19;;;;;;;4.37;2.03;;;;;;;21.17;96.84;101848.88;5231899;28;20030;-69
2023/08/17 00:08:50;;;;;;;4.73;1.90;;;;;;;21.20;98.39;101853.06;5241055;28;20041;-69
2023/08/17 00:11:21;;;;;;;4.57;1.70;;;;;;;21.12;98.05;101851.91;5233600;28;20029;-69
2023/08/17 00:13:53;;;;;;;4.47;1.90;;;;;;;21.14;98.33;101841.97;5251416;28;20910;-69
2023/08/17 00:16:24;;;;;;;5.20;1.53;;;;;;;21.18;97.78;101850.53;5274238;28;20609;-69
2023/08/17 00:18:55;;;;;;;4.10;2.33;;;;;;;21.18;98.05;101855.88;5267768;28;20108;-69
2023/08/17 00:21:28;;;;;;;7.23;2.40;;;;;;;20.99;99.12;101849.53;5254389;28;20032;-69
2023/08/17 00:23:59;;;;;;;6.70;2.10;;;;;;;20.80;100.00;101848.44;5239101;28;20097;-69
2023/08/17 00:26:30;;;;;;;5.60;2.03;;;;;;;20.90;100.00;101853.81;5252838;28;20037;-69
2023/08/17 00:29:02;;;;;;;10.80;2.00;;;;;;;21.07;98.69;101837.34;5238635;28;20380;-68
2023/08/17 00:31:33;;;;;;;6.47;2.10;;;;;;;20.92;100.00;101851.88;5246680;28;20143;-69
2023/08/17 00:34:05;;;;;;;3.60;1.50;;;;;;;20.81;100.00;101841.31;5237207;28;20033;-69
2023/08/17 00:36:36;;;;;;;7.20;1.63;;;;;;;21.16;97.95;101841.84;5242435;28;20091;-68
2023/08/17 00:39:07;;;;;;;8.40;3.40;;;;;;;21.01;100.00;101844.91;5241072;28;20035;-69
2023/08/17 00:41:39;;;;;;;5.70;1.80;;;;;;;20.76;100.00;101841.72;5268000;28;20020;-68
2023/08/17 00:44:10;;;;;;;4.50;1.60;;;;;;;20.79;100.00;101841.44;5261386;28;20479;-68
2023/08/17 00:46:41;;;;;;;6.50;2.00;;;;;;;20.64;100.00;101848.97;5247640;28;20132;-68
2023/08/17 00:49:13;;;;;;;7.33;2.17;;;;;;;20.68;100.00;101849.53;5238059;28;20044;-68
2023/08/17 00:51:44;;;;;;;4.83;1.83;;;;;;;20.65;100.00;101850.63;5247742;28;20057;-68
2023/08/17 00:54:23;;;;;;;5.67;1.97;;;;;;;20.87;100.00;101854.09;5252992;28;20033;-68
2023/08/17 00:56:55;;;;;;;5.43;2.20;;;;;;;20.74;100.00;101854.31;5259391;28;20036;-68
2023/08/17 00:59:26;;;;;;;5.50;1.93;;;;;;;20.65;100.00;101855.13;5252794;28;20432;-68
2023/08/17 01:01:57;;;;;;;13.17;2.60;;;;;;;20.88;97.87;101849.59;5255067;28;20589;-68
2023/08/17 01:04:29;;;;;;;5.47;1.50;;;;;;;20.74;97.44;101864.13;5250793;28;20544;-68
2023/08/17 01:07:00;;;;;;;7.33;1.93;;;;;;;20.78;97.09;101854.91;5254336;28;20033;-68
2023/08/17 01:09:32;;;;;;;6.53;1.80;;;;;;;20.74;97.63;101864.97;5243886;28;20404;-68
2023/08/17 01:12:14;;;;;;;4.03;1.80;;;;;;;20.69;100.00;101867.19;5240317;28;20446;-68
2023/08/17 01:14:48;;;;;;;4.87;1.97;;;;;;;20.66;99.12;101856.81;5235448;28;20539;-68
2023/08/17 01:17:22;;;;;;;;;;;;;;;21.18;93.31;101853.19;5234021;28;20433;-68
2023/08/17 01:19:54;;;;;;;5.15;1.83;;;;;;;20.67;99.29;101859.34;5234690;28;19942;-68
2023/08/17 01:22:27;;;;;;;5.77;2.07;;;;;;;20.58;99.98;101848.66;5234921;28;20033;-68
2023/08/17 01:24:59;;;;;;;5.82;2.00;;;;;;;20.35;100.00;101854.16;5235279;28;20060;-68
2023/08/17 01:27:39;;;;;;;5.80;2.30;;;;;;;20.59;99.44;101850.34;5233374;28;20108;-68
2023/08/17 01:30:14;;;;;;;4.10;1.80;;;;;;;20.43;100.00;101857.84;5233037;28;20072;-68
2023/08/17 01:32:46;;;;;;;7.47;2.40;;;;;;;20.47;100.00;101846.94;5234465;28;20021;-69
2023/08/17 01:35:32;;;;;;;4.80;1.93;;;;;;;20.37;100.00;101841.56;5253474;28;20020;-68
2023/08/17 01:38:07;;;;;;;5.57;2.00;;;;;;;20.48;100.00;101846.78;5253855;28;20467;-69
2023/08/17 01:40:39;;;;;;;5.37;2.10;;;;;;;20.23;100.00;101845.41;5255391;28;20025;-69
2023/08/17 01:43:12;;;;;;;5.53;1.77;;;;;;;20.22;100.00;101847.22;5253857;28;20114;-69
2023/08/17 01:45:43;;;;;;;7.50;2.37;;;;;;;20.23;100.00;101840.94;5233566;28;20464;-69
2023/08/17 01:48:15;;;;;;;6.60;2.27;;;;;;;20.21;100.00;101832.25;5232887;28;20056;-69
2023/08/17 01:50:46;;;;;;;7.83;2.37;;;;;;;20.26;100.00;101834.50;5234296;28;20039;-69
2023/08/17 01:53:17;;;;;;;7.43;2.10;;;;;;;20.13;100.00;101832.06;5245999;28;20076;-68
2023/08/17 01:55:49;;;;;;;3.13;2.00;;;;;;;19.96;100.00;101823.69;5253988;28;20522;-69
2023/08/17 01:58:20;;;;;;;7.27;2.33;;;;;;;20.03;100.00;101822.19;5241467;28;20129;-69
2023/08/17 02:00:51;;;;;;;7.50;2.37;;;;;;;20.08;100.00;101824.47;5252706;28;20033;-68
2023/08/17 02:03:23;;;;;;;7.17;2.30;;;;;;;20.07;100.00;101830.78;5226289;28;20174;-70
2023/08/17 02:05:58;;;;;;;7.27;2.40;;;;;;;20.16;100.00;101829.16;5227377;28;20084;-69
2023/08/17 02:08:30;;;;;;;6.03;2.37;;;;;;;19.95;100.00;101832.59;5221969;28;20050;-68
2023/08/17 02:11:01;;;;;;;5.27;2.50;;;;;;;20.04;100.00;101836.31;5216038;28;20031;-69
2023/08/17 02:13:32;;;;;;;8.77;2.93;;;;;;;19.87;100.00;101827.97;5233939;28;20815;-69
2023/08/17 02:16:04;;;;;;;6.43;2.70;;;;;;;20.19;100.00;101835.03;5248816;28;20036;-69
2023/08/17 02:18:35;;;;;;;7.17;1.97;;;;;;;20.16;100.00;101843.28;5274751;28;20032;-69
2023/08/17 02:21:07;;;;;;;5.17;2.13;;;;;;;20.12;100.00;101838.34;5275397;28;20074;-69
2023/08/17 02:23:38;;;;;;;6.00;2.53;;;;;;;19.95;100.00;101829.94;5275661;28;20024;-69
2023/08/17 02:26:10;;;;;;;4.63;2.33;;;;;;;19.86;100.00;101844.88;5274599;28;20361;-69
2023/08/17 02:28:42;;;;;;;5.03;2.20;;;;;;;20.12;100.00;101841.88;5275447;28;20447;-69
2023/08/17 02:31:13;;;;;;;5.07;2.40;;;;;;;19.85;100.00;101845.00;5261376;28;20037;-68
2023/08/17 02:33:44;;;;;;;5.90;2.20;;;;;;;20.10;100.00;101840.28;5232929;28;20034;-69
2023/08/17 02:36:16;;;;;;;7.87;2.10;;;;;;;19.77;100.00;101835.03;5249566;28;20112;-69
2023/08/17 02:38:47;;;;;;;8.57;2.10;;;;;;;19.90;100.00;101840.13;5236098;28;20060;-68
2023/08/17 02:41:18;;;;;;;5.70;2.43;;;;;;;19.75;100.00;101829.84;5251358;28;20467;-68
2023/08/17 02:43:49;;;;;;;8.87;3.03;;;;;;;19.71;100.00;101839.03;5241951;28;20074;-68
2023/08/17 02:46:21;;;;;;;5.37;1.77;;;;;;;19.74;100.00;101836.09;5253511;28;20036;-68
2023/08/17 02:48:53;;;;;;;5.07;2.00;;;;;;;19.80;100.00;101824.97;5252683;28;20433;-68
2023/08/17 02:51:24;;;;;;;3.27;1.70;;;;;;;19.66;100.00;101823.47;5252204;28;20048;-69
2023/08/17 02:53:55;;;;;;;3.90;1.73;;;;;;;19.70;100.00;101826.72;5250411;28;20079;-69
2023/08/17 02:56:27;;;;;;;6.70;2.30;;;;;;;19.81;100.00;101836.47;5252686;28;20067;-68
2023/08/17 02:58:58;;;;;;;5.60;1.80;;;;;;;19.83;100.00;101832.69;5250483;28;20056;-68
2023/08/17 03:01:30;;;;;;;5.70;2.00;;;;;;;19.61;100.00;101822.16;5235050;28;20033;-68
2023/08/17 03:04:02;;;;;;;4.23;1.73;;;;;;;19.61;100.00;101815.03;5243008;28;20025;-70
2023/08/17 03:06:33;;;;;;;3.13;1.70;;;;;;;19.68;100.00;101820.69;5252353;28;20557;-70
2023/08/17 03:09:05;;;;;;;3.57;1.40;;;;;;;19.77;100.00;101821.72;5249193;28;20056;-69
2023/08/17 03:11:36;;;;;;;6.47;1.90;;;;;;;19.83;100.00;101822.06;5257053;28;20032;-68
2023/08/17 03:14:07;;;;;;;6.07;2.40;;;;;;;19.88;100.00;101824.31;5274487;28;20016;-69
2023/08/17 03:16:39;;;;;;;4.57;2.13;;;;;;;19.78;100.00;101818.94;5250279;28;20033;-69
2023/08/17 03:19:11;;;;;;;7.27;2.80;;;;;;;19.94;100.00;101828.28;5252373;28;20021;-69
2023/08/17 03:21:42;;;;;;;7.40;2.27;;;;;;;19.75;100.00;101824.53;5235753;28;20032;-69
2023/08/17 03:24:13;;;;;;;6.77;2.00;;;;;;;19.79;100.00;101817.94;5257924;28;20032;-69
2023/08/17 03:26:45;;;;;;;10.93;2.07;;;;;;;19.66;100.00;101817.31;5264042;28;20078;-69
2023/08/17 03:29:16;;;;;;;5.80;1.93;;;;;;;19.78;100.00;101818.09;5253175;28;20028;-69
2023/08/17 03:31:49;;;;;;;5.97;2.20;;;;;;;19.67;100.00;101829.63;5253182;28;20048;-69
2023/08/17 03:34:20;;;;;;;6.90;2.17;;;;;;;19.92;100.00;101819.59;5252462;28;20044;-68
2023/08/17 03:36:52;;;;;;;4.07;1.97;;;;;;;19.79;100.00;101820.63;5253414;28;20016;-68
2023/08/17 03:39:23;;;;;;;5.57;1.87;;;;;;;19.68;100.00;101812.72;5252418;28;20025;-68
2023/08/17 03:41:54;;;;;;;5.77;1.83;;;;;;;19.87;100.00;101808.50;5253305;28;20048;-68
2023/08/17 03:44:26;;;;;;;5.47;1.90;;;;;;;19.75;100.00;101805.91;5252946;28;20038;-69
2023/08/17 03:46:57;;;;;;;5.87;2.63;;;;;;;19.76;100.00;101812.91;5235843;28;20120;-68
2023/08/17 03:49:28;;;;;;;5.20;1.80;;;;;;;19.78;100.00;101808.31;5252322;28;20033;-69
2023/08/17 03:51:59;;;;;;;6.70;1.87;;;;;;;19.69;100.00;101817.91;5259902;28;20503;-69
2023/08/17 03:54:31;;;;;;;4.73;1.93;;;;;;;19.72;100.00;101811.50;5241599;28;20037;-69
2023/08/17 03:57:02;;;;;;;4.20;1.90;;;;;;;19.74;100.00;101812.19;5259406;28;20391;-69
2023/08/17 03:59:34;;;;;;;6.83;1.97;;;;;;;19.88;100.00;101821.66;5251519;28;20093;-69
2023/08/17 04:02:05;;;;;;;4.00;1.90;;;;;;;19.73;100.00;101821.16;5249065;28;20098;-69
2023/08/17 04:04:37;;;;;;;5.63;2.17;;;;;;;19.74;100.00;101819.34;5258666;28;20060;-69
2023/08/17 04:07:08;;;;;;;4.23;1.70;;;;;;;19.55;100.00;101831.47;5242121;28;20083;-69
2023/08/17 04:09:44;;;;;;;5.37;2.33;;;;;;;19.74;100.00;101836.09;5242178;28;20569;-69
2023/08/17 04:12:15;;;;;;;5.77;1.93;;;;;;;19.69;100.00;101839.16;5259082;28;20432;-68
2023/08/17 04:14:46;;;;;;;7.73;2.17;;;;;;;19.46;100.00;101833.13;5242173;28;20179;-69
2023/08/17 04:17:18;;;;;;;5.33;2.03;;;;;;;19.39;100.00;101837.25;5255351;28;20025;-68
2023/08/17 04:19:49;;;;;;;6.70;2.07;;;;;;;19.49;100.00;101832.84;5259105;28;20025;-68
2023/08/17 04:22:20;;;;;;;4.43;1.80;;;;;;;19.54;100.00;101835.97;5241467;28;20041;-68
2023/08/17 04:24:52;;;;;;;4.37;2.10;;;;;;;19.59;100.00;101840.91;5259581;28;20097;-69
2023/08/17 04:27:23;;;;;;;8.73;3.80;;;;;;;19.56;100.00;101834.03;5259369;28;20158;-69
2023/08/17 04:29:54;;;;;;;5.83;2.23;;;;;;;19.65;100.00;101848.38;5258547;28;20032;-68
2023/08/17 04:32:26;;;;;;;5.73;2.23;;;;;;;19.46;100.00;101851.72;5258942;28;20052;-69
2023/08/17 04:34:57;;;;;;;5.27;2.33;;;;;;;19.51;100.00;101844.19;5259925;28;20502;-69
2023/08/17 04:37:28;;;;;;;6.63;2.30;;;;;;;19.54;100.00;101846.59;5258907;28;20033;-69
2023/08/17 04:40:00;;;;;;;9.93;2.60;;;;;;;19.55;100.00;101845.63;5258972;28;20021;-69
2023/08/17 04:42:31;;;;;;;6.47;2.00;;;;;;;19.51;100.00;101844.19;5241812;28;20025;-69
2023/08/17 04:45:03;;;;;;;7.23;2.50;;;;;;;19.45;100.00;101850.84;5258965;28;20029;-69
2023/08/17 04:47:34;;;;;;;5.43;1.83;;;;;;;19.31;100.00;101851.97;5258722;28;20067;-69
2023/08/17 04:50:06;;;;;;;6.80;2.03;;;;;;;19.06;100.00;101842.50;5258293;28;20456;-69
2023/08/17 04:52:37;;;;;;;6.00;2.13;;;;;;;19.50;100.00;101846.97;5258615;28;20104;-69
2023/08/17 04:55:09;;;;;;;3.57;1.60;;;;;;;19.24;100.00;101840.16;5259470;28;20029;-69
2023/08/17 04:57:40;;;;;;;7.27;2.47;;;;;;;19.12;100.00;101841.16;5258952;28;20116;-69
2023/08/17 05:00:16;;;;;;;7.03;2.17;;;;;;;19.21;100.00;101835.97;5259029;28;20025;-69
2023/08/17 05:02:47;;;;;;;6.30;2.40;;;;;;;19.18;100.00;101849.47;5254364;28;20040;-69
2023/08/17 05:05:18;;;;;;;5.30;1.87;;;;;;;19.28;100.00;101852.25;5255778;28;20025;-69
2023/08/17 05:07:50;;;;;;;4.37;2.00;;;;;;;19.12;100.00;101854.44;5255906;28;20418;-69
2023/08/17 05:10:21;;;;;;;6.50;2.40;;;;;;;19.14;100.00;101844.53;5255178;28;20033;-69
2023/08/17 05:12:55;;;;;;;9.67;2.23;;;;;;;19.28;100.00;101852.25;5237904;28;20547;-69
2023/08/17 05:15:26;;;;;;;6.00;2.17;;;;;;;19.16;100.00;101840.81;5255455;28;20052;-68
2023/08/17 05:17:57;;;;;;;8.63;3.70;;;;;;;19.15;100.00;101827.66;5254713;28;20060;-68
2023/08/17 05:20:32;;;;;;;11.27;3.27;;;;;;;19.22;100.00;101847.41;5255006;28;20068;-69
2023/08/17 05:23:04;;;;;;;4.93;2.03;;;;;;;19.26;100.00;101838.25;5237081;28;20486;-69
2023/08/17 05:25:35;;;;;;;4.43;1.97;;;;;;;19.24;100.00;101850.78;5254768;28;20025;-69
2023/08/17 05:28:06;;;;;;;4.60;2.30;;;;;;;19.10;100.00;101841.25;5254638;28;20025;-69
2023/08/17 05:30:38;;;;;;;6.20;2.23;;;;;;;19.26;100.00;101842.69;5255430;28;20029;-69
2023/08/17 05:33:09;;;;;;;6.43;2.23;;;;;;;19.10;100.00;101836.78;5267132;28;20046;-69
2023/08/17 05:35:42;;;;;;;5.37;2.40;;;;;;;19.15;100.00;101835.63;5276011;28;20031;-69
2023/08/17 05:38:13;;;;;;;9.30;2.40;;;;;;;19.08;100.00;101852.00;5255352;28;20017;-69
2023/08/17 05:40:44;;;;;;;5.77;2.47;;;;;;;19.21;100.00;101849.25;5255804;28;20021;-69
2023/08/17 05:43:16;;;;;;;6.00;2.70;;;;;;;19.14;100.00;101841.88;5254938;28;20063;-69
2023/08/17 05:45:47;;;;;;;6.37;2.23;;;;;;;19.04;100.00;101847.91;5245652;28;20059;-69
2023/08/17 05:48:20;;;;;;;7.60;2.80;;;;;;;19.15;100.00;101854.22;5235858;28;20379;-68
2023/08/17 05:50:51;;;;;;;6.03;2.85;;;;;;;19.27;100.00;101861.16;5252996;28;20036;-68
2023/08/17 05:53:23;;;;;;;6.53;2.53;;;;;;;19.29;100.00;101853.06;5253088;28;20537;-68
2023/08/17 05:55:55;;;;;;;9.70;2.53;;;;;;;19.18;100.00;101846.00;5254488;28;20039;-68
2023/08/17 05:58:26;;;;;;;4.90;2.53;;;;;;;19.44;100.00;101856.28;5255006;28;20043;-69
2023/08/17 06:01:10;;;;;;;8.10;2.10;;;;;;;19.44;100.00;101843.84;5253783;28;20127;-69
2023/08/17 06:03:42;;;;;;;7.72;2.45;;;;;;;19.36;100.00;101850.78;5254719;28;20029;-68
2023/08/17 06:06:13;;;;;;;5.93;2.97;;;;;;;19.36;100.00;101856.91;5226625;28;20486;-67
2023/08/17 06:08:45;;;;;;;7.03;2.87;;;;;;;19.43;100.00;101859.91;5236458;28;20120;-67
2023/08/17 06:11:16;;;;;;;7.13;2.80;;;;;;;19.37;100.00;101860.41;5244991;28;20030;-67
2023/08/17 06:13:48;;;;;;;5.97;2.50;;;;;;;19.40;100.00;101865.47;5212637;28;20095;-67
2023/08/17 06:16:19;;;;;;;7.53;2.90;;;;;;;19.38;100.00;101873.56;5254404;28;20029;-66
2023/08/17 06:18:50;;;;;;;6.40;2.63;;;;;;;19.57;100.00;101866.75;5253837;28;20167;-67
2023/08/17 06:21:22;;;;;;;8.30;2.50;;;;;;;19.58;100.00;101863.94;5254073;28;20543;-66
2023/08/17 06:23:53;;;;;;;8.37;2.97;;;;;;;19.58;100.00;101861.28;5254692;28;20059;-65
2023/08/17 06:26:24;;;;;;;7.77;2.70;;;;;;;19.73;100.00;101866.31;5252829;28;20765;-65
2023/08/17 06:28:56;;;;;;;6.63;2.90;;;;;;;19.71;100.00;101857.63;5234047;28;20150;-66
2023/08/17 06:31:27;;;;;;;11.27;3.17;;;;;;;19.82;100.00;101868.22;5244771;28;20205;-66
2023/08/17 06:33:58;;;;;;;9.37;2.97;;;;;;;19.70;100.00;101861.28;5252137;28;20036;-65
2023/08/17 06:36:31;;;;;;;9.50;3.30;;;;;;;19.74;100.00;101861.84;5227770;28;20404;-66
2023/08/17 06:39:04;;;;;;;7.93;3.43;;;;;;;19.81;100.00;101863.03;5256769;28;20395;-67
2023/08/17 06:41:35;;;;;;;15.10;3.33;;;;;;;19.76;100.00;101862.56;5255809;28;20029;-72
2023/08/17 06:44:07;;;;;;;9.80;3.70;;;;;;;19.87;100.00;101877.59;5238332;28;20064;-71
2023/08/17 06:46:38;;;;;;;8.37;2.90;;;;;;;19.82;100.00;101859.41;5244872;28;20037;-69
2023/08/17 06:49:11;;;;;;;5.83;2.53;;;;;;;20.00;100.00;101875.59;5230504;28;20472;-68
2023/08/17 06:51:42;;;;;;;6.33;2.97;;;;;;;20.23;100.00;101875.50;5245333;28;20381;-68
2023/08/17 06:54:13;;;;;;;8.50;2.50;;;;;;;20.36;100.00;101872.66;5237347;28;20039;-68
2023/08/17 06:56:45;;;;;;;4.47;3.10;;;;;;;20.42;100.00;101866.78;5248255;28;20035;-68
2023/08/17 06:59:16;;;;;;;8.33;2.60;;;;;;;20.49;100.00;101867.09;5237086;28;20053;-70
2023/08/17 07:01:47;;;;;;;5.47;2.80;;;;;;;20.46;100.00;101859.38;5234937;28;20060;-71
2023/08/17 07:04:19;;;;;;;8.40;3.07;;;;;;;20.46;100.00;101859.38;5251782;28;20162;-69
2023/08/17 07:06:52;;;;;;;9.10;3.27;;;;;;;20.56;100.00;101867.44;5252608;28;20139;-75
2023/08/17 07:09:23;;;;;;;11.10;3.57;;;;;;;20.55;100.00;101871.06;5246533;28;20412;-71
2023/08/17 07:11:55;;;;;;;4.80;2.80;;;;;;;20.37;100.00;101866.34;5242793;28;20044;-71
2023/08/17 07:14:27;;;;;;;8.13;3.20;;;;;;;20.35;100.00;101870.13;5237885;28;20108;-74
2023/08/17 07:16:59;;;;;;;7.57;3.17;;;;;;;20.46;100.00;101875.34;5237858;28;20036;-72
2023/08/17 07:19:32;;;;;;;7.07;3.50;;;;;;;20.33;100.00;101866.75;5233865;28;20464;-71
2023/08/17 07:22:03;;;;;;;5.60;2.60;;;;;;;20.40;100.00;101862.59;5249801;28;20025;-71
2023/08/17 07:24:34;;;;;;;5.00;2.77;;;;;;;20.42;100.00;101871.28;5251510;28;20013;-71
2023/08/17 07:27:06;;;;;;;9.30;3.77;;;;;;;20.29;100.00;101868.81;5250558;28;20036;-71
2023/08/17 07:29:37;;;;;;;8.60;3.17;;;;;;;20.20;100.00;101870.44;5235413;28;20083;-71
2023/08/17 07:32:09;;;;;;;9.23;3.33;;;;;;;20.44;100.00;101869.31;5236612;28;20037;-71
2023/08/17 07:34:40;;;;;;;8.03;3.27;;;;;;;20.33;100.00;101866.75;5233849;28;20028;-71
2023/08/17 07:37:11;;;;;;;7.27;2.73;;;;;;;20.24;100.00;101860.41;5250211;28;20078;-71
2023/08/17 07:39:43;;;;;;;6.90;2.67;;;;;;;20.23;100.00;101872.84;5251449;28;20021;-70
2023/08/17 07:42:14;;;;;;;4.93;2.93;;;;;;;20.48;100.00;101875.22;5251797;28;20060;-70
2023/08/17 07:44:45;;;;;;;7.70;2.93;;;;;;;20.65;100.00;101873.75;5249687;28;20492;-71
2023/08/17 07:47:16;;;;;;;7.47;2.93;;;;;;;;;;5250593;28;20112;-70
2023/08/17 07:49:48;;;;;;;5.27;2.57;;;;;;;20.59;100.00;101882.28;5247177;28;20032;-71
2023/08/17 07:52:19;;;;;;;5.80;2.47;;;;;;;20.42;100.00;101865.97;5235625;28;20033;-71
2023/08/17 07:54:50;;;;;;;9.30;3.73;;;;;;;20.55;100.00;101882.53;5251078;28;20614;-71
2023/08/17 07:57:22;;;;;;;7.67;2.90;;;;;;;20.58;100.00;101875.28;5245350;28;20033;-69
2023/08/17 07:59:53;;;;;;;9.17;3.07;;;;;;;20.62;100.00;101888.19;5250927;28;20471;-72
2023/08/17 08:02:25;;;;;;;6.50;3.07;;;;;;;20.60;100.00;101887.47;5238420;28;20392;-71
2023/08/17 08:04:56;;;;;;;6.63;2.80;;;;;;;20.67;100.00;101885.09;5251698;28;20472;-70
2023/08/17 08:07:27;;;;;;;7.60;2.67;;;;;;;20.68;100.00;101878.81;5248859;28;20045;-70
2023/08/17 08:09:59;;;;;;;8.93;2.90;;;;;;;20.76;100.00;101879.00;5223627;28;20149;-68
2023/08/17 08:12:30;;;;;;;8.13;3.63;;;;;;;20.76;100.00;101884.31;5250885;28;20043;-71
2023/08/17 08:15:01;;;;;;;7.77;2.83;;;;;;;20.68;100.00;101876.16;5249823;28;20060;-70
2023/08/17 08:17:32;;;;;;;5.57;2.63;;;;;;;20.63;100.00;101873.06;5249459;28;20043;-70
2023/08/17 08:20:05;;;;;;;6.30;2.87;;;;;;;20.76;100.00;101873.66;5234832;28;21680;-70
2023/08/17 08:22:36;;;;;;;6.93;2.90;;;;;;;20.61;100.00;101877.66;5234858;28;20056;-69
2023/08/17 08:25:08;;;;;;;9.17;2.87;;;;;;;20.78;100.00;101870.88;5248348;28;20036;-70
2023/08/17 08:27:39;;;;;;;6.40;2.83;;;;;;;20.74;100.00;101878.28;5232508;28;20037;-70
2023/08/17 08:30:10;;;;;;;7.73;3.17;;;;;;;20.88;100.00;101873.56;5244376;28;20075;-71
2023/08/17 08:32:42;;;;;;;5.47;2.53;;;;;;;20.84;100.00;101882.81;5231380;28;20060;-71
2023/08/17 08:35:13;;;;;;;7.43;3.03;;;;;;;20.82;100.00;101882.94;5240248;28;20531;-70
2023/08/17 08:37:44;;;;;;;7.93;2.93;;;;;;;20.86;100.00;101880.81;5230158;28;20031;-68
2023/08/17 08:40:17;;;;;;;7.73;3.17;;;;;;;20.86;100.00;101892.31;5255909;28;20126;-68
2023/08/17 08:42:48;;;;;;;9.13;3.57;;;;;;;20.95;100.00;101888.03;5255080;28;20029;-69
2023/08/17 08:45:22;;;;;;;6.87;3.20;;;;;;;20.65;100.00;101890.56;5250943;28;20040;-71
2023/08/17 08:47:54;;;;;;;10.05;3.00;;;;;;;20.55;100.00;101885.22;5252045;28;20099;-69
2023/08/17 08:50:28;;;;;;;7.30;3.55;;;;;;;20.55;100.00;101887.88;5250923;28;20112;-69
2023/08/17 08:53:00;;;;;;;8.30;4.10;;;;;;;20.72;100.00;101874.91;5255349;28;20028;-71
2023/08/17 08:55:37;;;;;;;7.40;3.30;;;;;;;20.48;100.00;101876.06;5255041;28;20044;-70
2023/08/17 08:58:08;;;;;;;8.38;3.50;;;;;;;20.44;100.00;101871.97;5250611;28;20032;-69
2023/08/17 09:00:40;;;;;;;6.77;3.37;;;;;;;20.66;100.00;101872.78;5236702;28;20025;-68
2023/08/17 09:03:12;;;;;;;8.23;3.33;;;;;;;20.72;100.00;101868.75;5239931;28;20316;-70
2023/08/17 09:05:49;;;;;;;8.80;4.63;;;;;;;20.81;100.00;101875.91;5234972;28;20032;-70
2023/08/17 09:08:22;;;;;;;8.20;3.83;;;;;;;20.51;100.00;101867.00;5235019;28;20057;-69
2023/08/17 09:10:54;;;;;;;8.50;4.05;;;;;;;20.62;100.00;101866.03;5234369;28;20029;-73
2023/08/17 09:13:25;;;;;;;8.90;4.07;;;;;;;20.44;100.00;101864.00;5250168;28;20490;-69
2023/08/17 09:16:00;;;;;;;9.53;4.30;;;;;;;20.43;100.00;101859.66;5256101;28;20459;-69
2023/08/17 09:18:31;;;;;;;;;;;;;;;21.07;100.00;101858.66;5239082;28;20036;-68
2023/08/17 09:21:02;;;;;;;10.73;3.97;;;;;;;20.53;100.00;101863.19;5235279;28;19916;-68
2023/08/17 09:23:34;;;;;;;12.23;4.90;;;;;;;20.43;100.00;101870.28;5246071;28;20117;-67
2023/08/17 09:26:08;;;;;;;13.70;3.90;;;;;;;20.58;100.00;101869.97;5234772;28;20021;-67
2023/08/17 09:28:40;;;;;;;11.23;5.00;;;;;;;20.43;100.00;101870.28;5233965;28;20025;-71
2023/08/17 09:31:12;;;;;;;10.23;4.50;;;;;;;20.31;100.00;101867.72;5250780;28;20033;-69
2023/08/17 09:33:49;;;;;;;16.73;6.17;;;;;;;20.61;100.00;101859.03;5234035;28;20036;-68
2023/08/17 09:36:22;;;;;;;11.33;5.90;;;;;;;20.45;100.00;101865.69;5235950;28;21049;-70
2023/08/17 09:38:53;;;;;;;11.77;5.23;;;;;;;20.60;100.00;101860.00;5235179;28;20047;-70
2023/08/17 09:41:24;;;;;;;15.43;5.70;;;;;;;20.64;100.00;101858.75;5227342;28;20036;-69
2023/08/17 09:43:56;;;;;;;14.33;5.37;;;;;;;20.71;100.00;101864.38;5235625;28;20120;-73
2023/08/17 09:46:27;;;;;;;8.73;4.50;;;;;;;20.67;100.00;101858.50;5234728;28;20095;-71
2023/08/17 09:48:59;;;;;;;17.90;6.33;;;;;;;20.87;100.00;101858.56;5239652;28;20028;-70
2023/08/17 09:51:30;;;;;;;14.30;5.50;;;;;;;20.81;100.00;101865.25;5250130;28;20033;-73
2023/08/17 09:54:02;;;;;;;16.00;6.83;;;;;;;20.81;100.00;101865.25;5241630;28;20476;-72
2023/08/17 09:56:34;;;;;;;13.43;5.13;;;;;;;20.86;100.00;101857.72;5246175;28;20588;-70
2023/08/17 09:59:05;;;;;;;12.30;6.27;;;;;;;20.80;100.00;101853.75;5254138;28;20052;-69
2023/08/17 10:01:37;;;;;;;13.60;6.57;;;;;;;20.72;100.00;101855.44;5252165;28;20464;-70
2023/08/17 10:04:10;;;;;;;12.20;5.73;;;;;;;20.76;100.00;101854.19;5236716;28;20032;-70
2023/08/17 10:06:42;;;;;;;15.00;6.40;;;;;;;20.76;100.00;101855.03;5236115;28;20391;-70
2023/08/17 10:09:19;;;;;;;12.27;6.80;;;;;;;20.91;100.00;101843.97;5253901;28;20509;-70
2023/08/17 10:11:52;;;;;;;14.57;7.40;;;;;;;20.74;100.00;101849.00;5235138;28;20036;-73
2023/08/17 10:14:30;;;;;;;13.27;6.93;;;;;;;20.95;100.00;101826.81;5254338;28;20361;-73
2023/08/17 10:17:06;;;;;;;12.67;6.73;;;;;;;20.74;100.00;101841.00;5252987;28;20029;-71
2023/08/17 10:19:48;;;;;;;11.77;6.50;;;;;;;20.87;100.00;101831.94;5253840;28;20025;-71
2023/08/17 10:22:29;;;;;;;13.97;6.90;;;;;;;21.01;100.00;101834.25;5253559;28;20033;-70
2023/08/17 10:25:01;;;;;;;14.20;6.97;;;;;;;20.94;100.00;101840.25;5253311;28;20400;-72
2023/08/17 10:27:34;;;;;;;11.73;6.23;;;;;;;20.91;100.00;101828.00;5253676;28;20049;-70
2023/08/17 10:30:08;;;;;;;14.93;6.43;;;;;;;20.87;100.00;101832.78;5253437;28;20033;-71
2023/08/17 10:32:45;;;;;;;14.02;7.13;;;;;;;21.06;100.00;101833.84;5252504;28;20021;-71
2023/08/17 10:35:16;;;;;;;11.83;6.90;;;;;;;21.01;100.00;101828.94;5253178;28;20025;-72
2023/08/17 10:37:48;;;;;;;12.65;7.03;;;;;;;21.04;100.00;101825.13;5253522;28;20023;-71
2023/08/17 10:40:34;;;;;;;12.40;6.43;;;;;;;21.03;100.00;101826.13;5252744;28;21096;-71
2023/08/17 10:43:05;;;;;;;11.27;6.85;;;;;;;20.93;100.00;101834.03;5253646;28;20345;-71
2023/08/17 10:45:38;;;;;;;11.30;5.93;;;;;;;21.15;100.00;101834.84;5253342;28;20023;-71
2023/08/17 10:48:09;;;;;;;13.35;7.55;;;;;;;21.20;100.00;101831.75;5252646;28;20035;-70
2023/08/17 10:51:02;;;;;;;12.90;6.60;;;;;;;21.18;100.00;101833.69;5252357;28;20468;-73
2023/08/17 10:53:42;;;;;;;13.17;6.93;;;;;;;21.32;100.00;101829.78;5253022;28;20033;-72
2023/08/17 10:56:14;;;;;;;13.85;6.75;;;;;;;21.20;100.00;101821.94;5252557;28;20020;-72
2023/08/17 10:58:45;;;;;;;11.68;6.30;;;;;;;21.29;100.00;101825.59;5252155;28;20040;-72
2023/08/17 11:01:34;;;;;;;17.63;6.50;;;;;;;21.45;100.00;101818.88;5249310;28;20029;-72
2023/08/17 11:04:16;;;;;;;14.15;6.57;;;;;;;21.62;100.00;101822.66;5232837;28;20581;-72
2023/08/17 11:07:01;;;;;;;17.10;8.02;;;;;;;21.56;100.00;101820.53;5234293;28;20102;-72
2023/08/17 11:09:35;;;;;;;15.02;7.35;;;;;;;21.65;100.00;101830.34;5251685;28;20053;-73
2023/08/17 11:12:24;;;;;;;13.63;7.88;;;;;;;21.60;100.00;101824.59;5252752;28;20068;-72
2023/08/17 11:14:59;;;;;;;14.20;7.57;;;;;;;21.36;100.00;101831.22;5235003;28;20120;-72
2023/08/17 11:17:30;;;;;;;;;;;;;;;22.20;100.00;101828.03;5247814;28;20037;-73
2023/08/17 11:20:02;;;;;;;14.68;7.78;;;;;;;21.47;100.00;101836.38;5243260;28;19959;-71
2023/08/17 11:22:33;;;;;;;13.18;7.80;;;;;;;21.48;100.00;101826.56;5231139;28;20107;-71
2023/08/17 11:25:05;;;;;;;16.83;8.23;;;;;;;21.53;100.00;101827.00;5232048;28;20037;-71
2023/08/17 11:27:37;;;;;;;14.65;8.13;;;;;;;21.55;100.00;101834.84;5234316;28;20431;-74
2023/08/17 11:30:09;;;;;;;20.00;8.48;;;;;;;21.65;100.00;101830.34;5231102;28;20033;-71
2023/08/17 11:32:40;;;;;;;10.45;7.97;;;;;;;21.67;100.00;101843.53;5240728;28;20021;-70
2023/08/17 11:35:11;;;;;;;12.07;7.30;;;;;;;21.70;100.00;101838.75;5252494;28;20391;-69
2023/08/17 11:37:43;;;;;;;13.65;7.55;;;;;;;21.69;100.00;101841.56;5252468;28;20013;-72
2023/08/17 11:40:15;;;;;;;16.30;7.45;;;;;;;21.44;100.00;101839.34;5243701;28;20202;-72